Seiyu Maru — JD3189 — position and weather

sailwx.info

Track history (hours):
 
Tides and Currents Weather Stations Pressure Air Temp Water Temp Dewpoint Dewpoint Depression Visibility Wind Speed Wind Dir Waves Ship Positions

Seiyu Maru

Last reported at 2017-Jul-18 10:08 UTC. Time now 2017-Jul-22 06:35 UTC.
Position N 34°36' E 134°53'.

Length 75 m; draft 4.5 m.

Type: Cargo ship. MMSI: 431002433.

Date/timePositionNaut miles runAvg speedWind from/ knotsBaromVisibWave heightAir tempDewpointWater temp
2017-Jul-18 10:08N 34°36' E 134°53'212.5
2017-Jul-18 09:58N 34°37' E 134°56'511.4
2017-Jul-18 09:30N 34°37' E 135°02'611.8
2017-Jul-18 08:59N 34°36' E 135°09'612.0
2017-Jul-18 08:30N 34°37' E 135°17'511.1
2017-Jul-18 08:00N 34°38' E 135°23'4 7.3
2017-Jul-18 07:30N 34°40' E 135°27'0 0.0
2017-Jul-18 06:59N 34°40' E 135°27'0 0.0
2017-Jul-18 06:30N 34°40' E 135°27'0 0.0
2017-Jul-18 06:00N 34°40' E 135°27'1 2.3
2017-Jul-18 05:30N 34°39' E 135°26'4 7.2
2017-Jul-18 04:59N 34°36' E 135°25'1 0.3
2017-Jul-17 23:17N 34°35' E 135°27'0 0.0
2017-Jul-17 22:59N 34°35' E 135°27'1 0.5
2017-Jul-17 21:24N 34°35' E 135°28'0 0.0
2017-Jul-17 21:00N 34°35' E 135°28'0 0.1
2017-Jul-17 20:30N 34°35' E 135°28'0 0.1
2017-Jul-17 20:00N 34°35' E 135°28'0 0.0
2017-Jul-17 19:30N 34°35' E 135°28'0 0.0
2017-Jul-17 19:00N 34°35' E 135°28'0 0.0
2017-Jul-17 17:18N 34°35' E 135°28'0 0.0
2017-Jul-17 17:00N 34°35' E 135°28'0 0.0
2017-Jul-17 16:00N 34°35' E 135°28'0 0.1
2017-Jul-17 15:30N 34°35' E 135°28'0 0.0
2017-Jul-17 14:54N 34°35' E 135°28'0 0.1
2017-Jul-17 14:24N 34°35' E 135°28'0 0.1
2017-Jul-17 14:00N 34°35' E 135°28'0 0.1
2017-Jul-17 13:18N 34°35' E 135°28'0 0.1
2017-Jul-17 12:42N 34°35' E 135°28'0 0.0
2017-Jul-17 11:30N 34°35' E 135°28'0 0.0
2017-Jul-17 10:54N 34°35' E 135°28'0 0.0
2017-Jul-17 10:18N 34°35' E 135°28'0 0.0
2017-Jul-17 10:00N 34°35' E 135°28'0 0.1
2017-Jul-17 09:24N 34°35' E 135°28'0 0.1
2017-Jul-17 08:54N 34°35' E 135°28'0 0.0
2017-Jul-17 08:30N 34°35' E 135°28'0 0.0
2017-Jul-17 05:54N 34°35' E 135°28'0 0.0
2017-Jul-17 04:30N 34°35' E 135°28'0 0.1
2017-Jul-17 03:57N 34°35' E 135°28'1 2.8
2017-Jul-17 03:30N 34°35' E 135°26'510.1
2017-Jul-17 03:00N 34°36' E 135°20'511.0
2017-Jul-17 02:30N 34°35' E 135°14'611.3
2017-Jul-17 02:00N 34°35' E 135°07'  
2017-Jul-14 08:31N 34°13' E 134°58'013.3
2017-Jul-14 08:30N 34°13' E 134°58'510.6
2017-Jul-14 08:00N 34°14' E 135°04'2 4.6
2017-Jul-14 07:30N 34°15' E 135°07'0 0.0
2017-Jul-14 07:00N 34°15' E 135°07'0 0.0
2017-Jul-14 06:26N 34°15' E 135°07'0 0.0
2017-Jul-14 05:59N 34°15' E 135°07'0 0.0
2017-Jul-14 05:26N 34°15' E 135°07'0 0.0
2017-Jul-14 04:59N 34°15' E 135°07'0 0.0
2017-Jul-14 02:38N 34°15' E 135°07'0 0.0
2017-Jul-14 02:05N 34°15' E 135°07'0 0.0
2017-Jul-14 01:56N 34°15' E 135°07'0 0.0
2017-Jul-14 01:26N 34°15' E 135°07'0 0.3
2017-Jul-14 00:59N 34°15' E 135°07'1 1.2
2017-Jul-14 00:28N 34°15' E 135°06'0 0.0
2017-Jul-13 23:58N 34°15' E 135°06'0 0.0
2017-Jul-13 23:28N 34°15' E 135°06'0 0.0
2017-Jul-13 22:58N 34°15' E 135°06'0 0.0
2017-Jul-13 22:28N 34°15' E 135°06'0 0.0
2017-Jul-13 21:58N 34°15' E 135°06'0 0.0
2017-Jul-13 21:28N 34°15' E 135°06'0 0.0
2017-Jul-13 20:58N 34°15' E 135°06'0 0.0
2017-Jul-13 20:28N 34°15' E 135°06'0 0.0
2017-Jul-13 19:58N 34°15' E 135°06'0 0.0
2017-Jul-13 19:28N 34°15' E 135°06'0 0.1
2017-Jul-13 18:58N 34°15' E 135°06'0 0.0
2017-Jul-13 18:28N 34°15' E 135°06'0 0.1
2017-Jul-13 17:58N 34°15' E 135°06'0 0.0
2017-Jul-13 17:28N 34°15' E 135°06'2 3.3
2017-Jul-13 17:00N 34°15' E 135°05'510.3
2017-Jul-13 16:30N 34°20' E 135°04'611.8
2017-Jul-13 16:00N 34°26' E 135°04'611.5
2017-Jul-13 15:30N 34°32' E 135°04'5 9.4
2017-Jul-13 15:00N 34°36' E 135°02'5 8.9
2017-Jul-13 14:29N 34°36' E 134°56'  
Track history (hours):
 
Tides and Currents Weather Stations Pressure Air Temp Water Temp Dewpoint Dewpoint Depression Visibility Wind Speed Wind Dir Waves Ship Positions

Seiyu Maru

Last reported at 2017-Jul-18 10:08 UTC. Time now 2017-Jul-22 06:35 UTC.
Position N 34°36' E 134°53'.

Length 75 m; draft 4.5 m.

Type: Cargo ship. MMSI: 431002433.

Date/timePositionNaut miles runAvg speedWind from/ knotsBaromVisibWave heightAir tempDewpointWater temp
2017-Jul-18 10:08N 34°36' E 134°53'212.5
2017-Jul-18 09:58N 34°37' E 134°56'511.4
2017-Jul-18 09:30N 34°37' E 135°02'611.8
2017-Jul-18 08:59N 34°36' E 135°09'612.0
2017-Jul-18 08:30N 34°37' E 135°17'511.1
2017-Jul-18 08:00N 34°38' E 135°23'4 7.3
2017-Jul-18 07:30N 34°40' E 135°27'0 0.0
2017-Jul-18 06:59N 34°40' E 135°27'0 0.0
2017-Jul-18 06:30N 34°40' E 135°27'0 0.0
2017-Jul-18 06:00N 34°40' E 135°27'1 2.3
2017-Jul-18 05:30N 34°39' E 135°26'4 7.2
2017-Jul-18 04:59N 34°36' E 135°25'1 0.3
2017-Jul-17 23:17N 34°35' E 135°27'0 0.0
2017-Jul-17 22:59N 34°35' E 135°27'1 0.5
2017-Jul-17 21:24N 34°35' E 135°28'0 0.0
2017-Jul-17 21:00N 34°35' E 135°28'0 0.1
2017-Jul-17 20:30N 34°35' E 135°28'0 0.1
2017-Jul-17 20:00N 34°35' E 135°28'0 0.0
2017-Jul-17 19:30N 34°35' E 135°28'0 0.0
2017-Jul-17 19:00N 34°35' E 135°28'0 0.0
2017-Jul-17 17:18N 34°35' E 135°28'0 0.0
2017-Jul-17 17:00N 34°35' E 135°28'0 0.0
2017-Jul-17 16:00N 34°35' E 135°28'0 0.1
2017-Jul-17 15:30N 34°35' E 135°28'0 0.0
2017-Jul-17 14:54N 34°35' E 135°28'0 0.1
2017-Jul-17 14:24N 34°35' E 135°28'0 0.1
2017-Jul-17 14:00N 34°35' E 135°28'0 0.1
2017-Jul-17 13:18N 34°35' E 135°28'0 0.1
2017-Jul-17 12:42N 34°35' E 135°28'0 0.0
2017-Jul-17 11:30N 34°35' E 135°28'0 0.0
2017-Jul-17 10:54N 34°35' E 135°28'0 0.0
2017-Jul-17 10:18N 34°35' E 135°28'0 0.0
2017-Jul-17 10:00N 34°35' E 135°28'0 0.1
2017-Jul-17 09:24N 34°35' E 135°28'0 0.1
2017-Jul-17 08:54N 34°35' E 135°28'0 0.0
2017-Jul-17 08:30N 34°35' E 135°28'0 0.0
2017-Jul-17 05:54N 34°35' E 135°28'0 0.0
2017-Jul-17 04:30N 34°35' E 135°28'0 0.1
2017-Jul-17 03:57N 34°35' E 135°28'1 2.8
2017-Jul-17 03:30N 34°35' E 135°26'510.1
2017-Jul-17 03:00N 34°36' E 135°20'511.0
2017-Jul-17 02:30N 34°35' E 135°14'611.3
2017-Jul-17 02:00N 34°35' E 135°07'  
2017-Jul-14 08:31N 34°13' E 134°58'013.3
2017-Jul-14 08:30N 34°13' E 134°58'510.6
2017-Jul-14 08:00N 34°14' E 135°04'2 4.6
2017-Jul-14 07:30N 34°15' E 135°07'0 0.0
2017-Jul-14 07:00N 34°15' E 135°07'0 0.0
2017-Jul-14 06:26N 34°15' E 135°07'0 0.0
2017-Jul-14 05:59N 34°15' E 135°07'0 0.0
2017-Jul-14 05:26N 34°15' E 135°07'0 0.0
2017-Jul-14 04:59N 34°15' E 135°07'0 0.0
2017-Jul-14 02:38N 34°15' E 135°07'0 0.0
2017-Jul-14 02:05N 34°15' E 135°07'0 0.0
2017-Jul-14 01:56N 34°15' E 135°07'0 0.0
2017-Jul-14 01:26N 34°15' E 135°07'0 0.3
2017-Jul-14 00:59N 34°15' E 135°07'1 1.2
2017-Jul-14 00:28N 34°15' E 135°06'0 0.0
2017-Jul-13 23:58N 34°15' E 135°06'0 0.0
2017-Jul-13 23:28N 34°15' E 135°06'0 0.0
2017-Jul-13 22:58N 34°15' E 135°06'0 0.0
2017-Jul-13 22:28N 34°15' E 135°06'0 0.0
2017-Jul-13 21:58N 34°15' E 135°06'0 0.0
2017-Jul-13 21:28N 34°15' E 135°06'0 0.0
2017-Jul-13 20:58N 34°15' E 135°06'0 0.0
2017-Jul-13 20:28N 34°15' E 135°06'0 0.0
2017-Jul-13 19:58N 34°15' E 135°06'0 0.0
2017-Jul-13 19:28N 34°15' E 135°06'0 0.1
2017-Jul-13 18:58N 34°15' E 135°06'0 0.0
2017-Jul-13 18:28N 34°15' E 135°06'0 0.1
2017-Jul-13 17:58N 34°15' E 135°06'0 0.0
2017-Jul-13 17:28N 34°15' E 135°06'2 3.3
2017-Jul-13 17:00N 34°15' E 135°05'510.3
2017-Jul-13 16:30N 34°20' E 135°04'611.8
2017-Jul-13 16:00N 34°26' E 135°04'611.5
2017-Jul-13 15:30N 34°32' E 135°04'5 9.4
2017-Jul-13 15:00N 34°36' E 135°02'5 8.9
2017-Jul-13 14:29N 34°36' E 134°56'  

Dump ship's entire track history